createdAt,value
2022-12-08T00:01:26.106Z,12.60
2022-12-08T00:03:53.561Z,15.70
2022-12-08T00:06:21.267Z,13.40
2022-12-08T00:08:49.120Z,13.70
2022-12-08T00:11:16.689Z,15.70
2022-12-08T00:13:44.317Z,15.50
2022-12-08T00:16:11.843Z,12.70
2022-12-08T00:18:39.299Z,17.00
2022-12-08T00:21:07.208Z,14.00
2022-12-08T00:23:34.736Z,12.20
2022-12-08T00:26:02.331Z,12.10
2022-12-08T00:28:29.716Z,11.60
2022-12-08T00:30:57.189Z,14.10
2022-12-08T00:33:24.650Z,12.30
2022-12-08T00:35:52.237Z,11.80
2022-12-08T00:38:19.626Z,12.90
2022-12-08T00:40:47.368Z,13.60
2022-12-08T00:43:15.047Z,13.80
2022-12-08T00:45:43.070Z,12.20
2022-12-08T00:48:10.993Z,16.00
2022-12-08T00:50:38.503Z,13.80
2022-12-08T00:53:06.127Z,9.30
2022-12-08T00:55:33.639Z,9.70
2022-12-08T00:58:01.390Z,12.10
2022-12-08T01:00:28.786Z,14.30
2022-12-08T01:02:56.208Z,10.70
2022-12-08T01:05:23.748Z,16.10
2022-12-08T01:07:51.577Z,11.00
2022-12-08T01:10:19.086Z,12.00
2022-12-08T01:12:46.968Z,8.30
2022-12-08T01:15:14.691Z,14.70
2022-12-08T01:17:42.505Z,16.90
2022-12-08T01:20:10.133Z,11.50
2022-12-08T01:22:37.644Z,15.20
2022-12-08T01:25:05.192Z,11.10
2022-12-08T01:27:32.739Z,11.80
2022-12-08T01:30:00.327Z,14.70
2022-12-08T01:32:28.070Z,13.10
2022-12-08T01:34:56.060Z,14.80
2022-12-08T01:37:23.594Z,11.10
2022-12-08T01:39:51.172Z,12.30
2022-12-08T01:42:18.640Z,10.50
2022-12-08T01:44:46.115Z,10.50
2022-12-08T01:47:13.909Z,11.50
2022-12-08T01:49:41.324Z,11.90
2022-12-08T01:52:09.017Z,14.40
2022-12-08T01:54:36.427Z,12.40
2022-12-08T01:57:04.005Z,10.00
2022-12-08T01:59:31.619Z,9.70
2022-12-08T02:01:59.343Z,13.10
2022-12-08T02:04:26.714Z,14.70
2022-12-08T02:06:54.282Z,12.80
2022-12-08T02:09:21.793Z,12.10
2022-12-08T02:11:49.398Z,12.10
2022-12-08T02:14:16.963Z,11.00
2022-12-08T02:16:44.394Z,14.90
2022-12-08T02:21:59.555Z,14.40
2022-12-08T02:24:27.266Z,12.80
2022-12-08T02:26:54.661Z,11.50
2022-12-08T02:29:22.347Z,12.20
2022-12-08T02:31:50.063Z,15.20
2022-12-08T02:34:17.722Z,10.30
2022-12-08T02:36:45.429Z,13.60
2022-12-08T02:39:12.909Z,10.80
2022-12-08T02:41:40.355Z,13.60
2022-12-08T02:44:07.782Z,12.70
2022-12-08T02:46:35.329Z,15.10
2022-12-08T02:49:03.157Z,11.90
2022-12-08T02:51:30.791Z,15.20
2022-12-08T02:53:58.428Z,9.20
2022-12-08T02:56:25.940Z,10.70
2022-12-08T02:58:53.678Z,16.10
2022-12-08T03:01:21.253Z,14.80
2022-12-08T03:03:48.788Z,9.90
2022-12-08T03:06:16.321Z,10.40
2022-12-08T03:08:43.874Z,18.60
2022-12-08T03:11:11.555Z,13.30
2022-12-08T03:13:38.993Z,9.50
2022-12-08T03:16:06.752Z,10.30
2022-12-08T03:18:34.481Z,15.60
2022-12-08T03:21:01.874Z,16.60
2022-12-08T03:23:29.745Z,15.70
2022-12-08T03:25:57.268Z,15.80
2022-12-08T03:28:24.673Z,14.70
2022-12-08T03:30:52.428Z,10.90
2022-12-08T03:33:20.044Z,10.70
2022-12-08T03:35:47.532Z,11.30
2022-12-08T03:38:14.965Z,14.20
2022-12-08T03:40:42.378Z,12.90
2022-12-08T03:43:10.012Z,16.30
2022-12-08T03:45:37.599Z,15.10
2022-12-08T03:48:05.329Z,12.80
2022-12-08T03:50:32.887Z,10.60
2022-12-08T03:53:00.276Z,8.60
2022-12-08T03:55:27.651Z,13.50
2022-12-08T03:57:55.532Z,15.20
2022-12-08T04:00:23.104Z,17.40
2022-12-08T04:02:50.605Z,12.80
2022-12-08T04:05:18.072Z,12.80
2022-12-08T04:07:45.563Z,13.30
2022-12-08T04:10:13.049Z,11.70
2022-12-08T04:12:40.676Z,18.30
2022-12-08T04:15:08.351Z,18.20
2022-12-08T04:17:36.040Z,12.70
2022-12-08T04:20:03.845Z,11.20
2022-12-08T04:22:31.691Z,13.60
2022-12-08T04:24:59.490Z,16.50
2022-12-08T04:27:26.903Z,15.00
2022-12-08T04:29:54.488Z,16.60
2022-12-08T04:32:21.855Z,19.30
2022-12-08T04:34:49.384Z,12.80
2022-12-08T04:37:16.964Z,13.80
2022-12-08T04:39:44.335Z,14.90
2022-12-08T04:42:11.929Z,9.90
2022-12-08T04:44:39.496Z,15.60
2022-12-08T04:47:07.026Z,13.40
2022-12-08T04:49:34.502Z,21.70
2022-12-08T04:52:02.054Z,14.30
2022-12-08T04:54:29.479Z,16.20
2022-12-08T04:56:56.857Z,15.80
2022-12-08T04:59:24.320Z,16.30
2022-12-08T05:01:51.812Z,18.00
2022-12-08T05:04:19.300Z,11.10
2022-12-08T05:06:47.028Z,14.10
2022-12-08T05:09:14.736Z,18.60
2022-12-08T05:11:48.356Z,16.40
2022-12-08T05:14:16.790Z,15.10
2022-12-08T05:16:44.306Z,14.00
2022-12-08T05:19:11.829Z,14.00
2022-12-08T05:21:39.504Z,11.70
2022-12-08T05:24:07.048Z,19.70
2022-12-08T05:26:34.433Z,17.20
2022-12-08T05:29:01.817Z,17.20
2022-12-08T05:31:29.575Z,16.90
2022-12-08T05:34:02.461Z,15.40
2022-12-08T05:36:30.732Z,15.40
2022-12-08T05:38:58.249Z,15.90
2022-12-08T05:41:25.747Z,15.90
2022-12-08T05:43:53.164Z,15.30
2022-12-08T05:46:20.892Z,20.70
2022-12-08T05:48:48.657Z,18.10
2022-12-08T05:51:16.217Z,18.60
2022-12-08T05:53:43.614Z,16.70
2022-12-08T05:56:12.372Z,11.00
2022-12-08T05:58:40.421Z,16.40
2022-12-08T06:01:07.947Z,6.60
2022-12-08T06:03:35.475Z,12.80
2022-12-08T06:06:03.055Z,17.20
2022-12-08T06:08:30.866Z,13.90
2022-12-08T06:10:58.409Z,17.60
2022-12-08T06:13:25.830Z,16.00
2022-12-08T06:15:53.544Z,20.20
2022-12-08T06:18:21.044Z,17.20
2022-12-08T06:20:48.508Z,16.40
2022-12-08T06:23:16.087Z,13.50
2022-12-08T06:25:43.611Z,13.70
2022-12-08T06:28:10.996Z,17.50
2022-12-08T06:30:38.677Z,15.00
2022-12-08T06:33:06.327Z,19.40
2022-12-08T06:35:33.741Z,16.00
2022-12-08T06:38:02.088Z,15.80
2022-12-08T06:40:29.569Z,11.40
2022-12-08T06:42:57.322Z,15.50
2022-12-08T06:45:25.073Z,13.80
2022-12-08T06:47:52.603Z,17.60
2022-12-08T06:50:20.350Z,15.30
2022-12-08T06:52:59.569Z,13.00
2022-12-08T06:55:57.937Z,14.80
2022-12-08T06:58:20.211Z,14.80
2022-12-08T07:00:47.809Z,17.90
2022-12-08T07:03:15.497Z,11.90
2022-12-08T07:05:42.999Z,12.20
2022-12-08T07:08:10.592Z,14.30
2022-12-08T07:10:38.246Z,11.70
2022-12-08T07:13:05.788Z,15.00
2022-12-08T07:15:33.706Z,10.70
2022-12-08T07:18:01.311Z,8.20
2022-12-08T07:20:29.033Z,18.50
2022-12-08T07:22:56.572Z,18.00
2022-12-08T07:25:24.234Z,14.80
2022-12-08T07:27:51.794Z,17.00
2022-12-08T07:30:19.662Z,15.90
2022-12-08T07:32:47.513Z,21.90
2022-12-08T07:35:15.020Z,13.20
2022-12-08T07:37:42.457Z,18.70
2022-12-08T07:40:09.874Z,19.30
2022-12-08T07:42:37.465Z,15.70
2022-12-08T07:45:05.101Z,16.00
2022-12-08T07:47:32.560Z,23.60
2022-12-08T07:50:00.139Z,14.90
2022-12-08T07:52:27.763Z,15.80
2022-12-08T07:54:55.152Z,15.60
2022-12-08T07:57:22.741Z,19.00
2022-12-08T07:59:50.521Z,15.00
2022-12-08T08:02:26.164Z,17.50
2022-12-08T08:04:54.423Z,16.70
2022-12-08T08:07:22.076Z,16.80
2022-12-08T08:09:49.859Z,17.10
2022-12-08T08:12:33.178Z,16.40
2022-12-08T08:15:00.861Z,16.00
2022-12-08T08:17:28.460Z,18.10
2022-12-08T08:19:56.348Z,11.20
2022-12-08T08:22:23.732Z,17.70
2022-12-08T08:24:51.535Z,20.70
2022-12-08T08:27:19.242Z,19.40
2022-12-08T08:29:46.622Z,16.20
2022-12-08T08:32:14.360Z,24.50
2022-12-08T08:34:41.842Z,18.50
2022-12-08T08:37:09.596Z,22.30
2022-12-08T08:39:37.495Z,17.60
2022-12-08T08:42:04.969Z,17.20
2022-12-08T08:44:32.383Z,16.60
2022-12-08T08:47:00.312Z,14.90
2022-12-08T08:49:28.067Z,18.70
2022-12-08T08:51:55.785Z,16.10
2022-12-08T08:54:23.446Z,13.50
2022-12-08T08:56:50.976Z,17.50
2022-12-08T08:59:18.561Z,20.90
2022-12-08T09:01:46.028Z,22.40
2022-12-08T09:04:13.808Z,17.40
2022-12-08T09:06:41.249Z,20.70
2022-12-08T09:09:08.907Z,20.90
2022-12-08T09:11:36.715Z,22.00
2022-12-08T09:14:04.146Z,19.10
2022-12-08T09:16:32.173Z,21.20
2022-12-08T09:19:01.703Z,22.40
2022-12-08T09:21:29.111Z,22.00
2022-12-08T09:23:56.518Z,22.60
2022-12-08T09:26:24.216Z,20.20
2022-12-08T09:28:52.339Z,21.60
2022-12-08T09:31:21.019Z,24.20
2022-12-08T09:33:50.012Z,23.90
2022-12-08T09:36:17.412Z,24.50
2022-12-08T09:38:45.194Z,19.80
2022-12-08T09:41:12.593Z,23.40
2022-12-08T09:43:40.329Z,25.90
2022-12-08T09:46:08.377Z,24.50
2022-12-08T09:48:35.902Z,18.80
2022-12-08T09:51:03.491Z,24.10
2022-12-08T09:53:35.461Z,24.10
2022-12-08T09:56:03.698Z,26.00
2022-12-08T09:58:31.228Z,24.80
2022-12-08T10:00:58.702Z,22.40
2022-12-08T10:03:26.355Z,21.40
2022-12-08T10:05:53.799Z,26.20
2022-12-08T10:08:21.339Z,23.80
2022-12-08T10:10:49.704Z,32.10
2022-12-08T10:13:17.350Z,22.60
2022-12-08T10:15:45.241Z,13.60
2022-12-08T10:18:12.957Z,21.80
2022-12-08T10:20:40.460Z,26.20
2022-12-08T10:23:08.122Z,22.00
2022-12-08T10:25:35.850Z,22.60
2022-12-08T10:28:03.470Z,20.20
2022-12-08T10:30:31.011Z,17.50
2022-12-08T10:32:58.952Z,25.50
2022-12-08T10:35:26.817Z,22.00
2022-12-08T10:37:54.550Z,24.20
2022-12-08T10:40:22.173Z,21.70
2022-12-08T10:42:49.711Z,24.40
2022-12-08T10:45:17.538Z,16.90
2022-12-08T10:47:46.522Z,17.30
2022-12-08T10:50:16.348Z,18.60
2022-12-08T10:52:44.110Z,12.40
2022-12-08T10:55:11.730Z,9.80
2022-12-08T10:57:39.727Z,8.20
2022-12-08T11:00:13.666Z,10.70
2022-12-08T11:02:41.671Z,11.80
2022-12-08T11:05:09.294Z,8.90
2022-12-08T11:07:37.042Z,10.70
2022-12-08T11:10:05.294Z,10.00
2022-12-08T11:12:33.092Z,10.20
2022-12-08T11:15:00.471Z,10.20
2022-12-08T11:17:28.078Z,11.10
2022-12-08T11:19:55.864Z,11.80
2022-12-08T11:22:23.443Z,10.20
2022-12-08T11:24:51.092Z,8.80
2022-12-08T11:27:18.761Z,12.10
2022-12-08T11:29:46.539Z,8.80
2022-12-08T11:32:14.239Z,9.20
2022-12-08T11:34:41.997Z,9.80
2022-12-08T11:37:09.648Z,9.60
2022-12-08T11:39:37.290Z,7.40
2022-12-08T11:42:05.027Z,8.80
2022-12-08T11:44:32.580Z,11.40
2022-12-08T11:47:00.113Z,8.70
2022-12-08T11:49:27.946Z,8.80
2022-12-08T11:51:55.626Z,9.40
2022-12-08T11:54:23.432Z,8.90
2022-12-08T11:56:50.898Z,9.80
2022-12-08T11:59:18.427Z,8.10
2022-12-08T12:01:45.901Z,12.60
2022-12-08T12:04:13.367Z,8.80
2022-12-08T12:06:56.795Z,11.10
2022-12-08T12:09:24.296Z,10.10
2022-12-08T12:11:52.011Z,8.20
2022-12-08T12:14:19.399Z,13.10
2022-12-08T12:16:46.879Z,13.10
2022-12-08T12:19:14.318Z,11.70
2022-12-08T12:21:42.699Z,11.80
2022-12-08T12:24:10.279Z,14.60
2022-12-08T12:26:38.009Z,11.30
2022-12-08T12:29:05.935Z,12.30
2022-12-08T12:31:33.674Z,14.20
2022-12-08T12:34:01.444Z,12.30
2022-12-08T12:36:28.963Z,17.90
2022-12-08T12:38:56.741Z,15.20
2022-12-08T12:41:25.663Z,10.30
2022-12-08T12:43:53.554Z,11.30
2022-12-08T12:46:21.340Z,11.90
2022-12-08T12:48:49.091Z,11.30
2022-12-08T12:51:16.635Z,10.10
2022-12-08T12:53:44.345Z,10.60
2022-12-08T12:56:12.011Z,8.90
2022-12-08T12:58:39.671Z,9.50
2022-12-08T13:01:07.084Z,7.30
2022-12-08T13:03:35.473Z,13.10
2022-12-08T13:06:03.129Z,9.50
2022-12-08T13:08:30.980Z,8.10
2022-12-08T13:10:58.825Z,8.70
2022-12-08T13:13:26.380Z,8.90
2022-12-08T13:15:54.105Z,7.90
2022-12-08T13:18:21.819Z,8.80
2022-12-08T13:20:49.520Z,9.20
2022-12-08T13:23:17.102Z,10.60
2022-12-08T13:25:44.491Z,13.60
2022-12-08T13:28:12.625Z,7.80
2022-12-08T13:30:40.360Z,10.50
2022-12-08T13:33:23.333Z,10.10
2022-12-08T13:35:50.753Z,7.70
2022-12-08T13:38:18.417Z,12.40
2022-12-08T13:40:46.325Z,11.00
2022-12-08T13:43:13.875Z,15.30
2022-12-08T13:46:41.877Z,14.70
2022-12-08T13:49:09.957Z,16.00
2022-12-08T13:57:05.474Z,14.70
2022-12-08T14:02:02.158Z,21.40
2022-12-08T14:07:17.429Z,19.30
2022-12-08T14:09:44.921Z,21.80
2022-12-08T14:12:12.308Z,24.80
2022-12-08T14:15:01.803Z,20.40
2022-12-08T14:17:27.956Z,24.10
2022-12-08T14:19:55.614Z,28.30
2022-12-08T14:22:23.325Z,25.10
2022-12-08T14:24:50.992Z,26.20
2022-12-08T14:27:18.638Z,26.70
2022-12-08T14:29:46.375Z,33.40
2022-12-08T14:32:13.834Z,32.10
2022-12-08T14:34:41.533Z,28.90
2022-12-08T14:37:09.115Z,26.20
2022-12-08T14:39:36.627Z,26.40
2022-12-08T14:42:04.189Z,23.40
2022-12-08T14:44:31.708Z,26.50
2022-12-08T14:47:03.984Z,22.70
2022-12-08T14:49:32.972Z,18.50
2022-12-08T14:52:00.520Z,19.90
2022-12-08T14:54:27.986Z,20.20
2022-12-08T14:56:55.872Z,19.80
2022-12-08T14:59:23.419Z,20.30
2022-12-08T15:01:51.026Z,17.50
2022-12-08T15:04:18.848Z,16.60
2022-12-08T15:06:46.550Z,20.40
2022-12-08T15:09:14.042Z,19.40
2022-12-08T15:11:41.859Z,26.70
2022-12-08T15:14:09.387Z,24.70
2022-12-08T15:16:36.965Z,22.30
2022-12-08T15:19:04.790Z,21.50
2022-12-08T15:21:32.454Z,19.10
2022-12-08T15:24:00.033Z,21.40
2022-12-08T15:26:27.682Z,26.90
2022-12-08T15:28:55.275Z,36.30
2022-12-08T15:31:22.733Z,38.90
2022-12-08T15:33:50.269Z,28.60
2022-12-08T15:36:17.679Z,28.20
2022-12-08T15:38:45.147Z,21.80
2022-12-08T15:41:15.141Z,26.00
2022-12-08T15:43:43.083Z,22.50
2022-12-08T15:46:10.776Z,19.20
2022-12-08T15:48:38.535Z,16.40
2022-12-08T15:51:06.192Z,16.10
2022-12-08T15:53:33.640Z,19.10
2022-12-08T15:56:27.045Z,22.30
2022-12-08T15:58:54.097Z,22.60
2022-12-08T16:01:23.119Z,18.80
2022-12-08T16:09:27.097Z,24.80
2022-12-08T16:12:06.504Z,29.40
2022-12-08T16:17:22.155Z,23.20
2022-12-08T16:19:50.266Z,21.90
2022-12-08T16:22:51.788Z,34.20
2022-12-08T16:25:22.294Z,33.00
2022-12-08T16:30:37.907Z,46.80
2022-12-08T16:33:05.569Z,38.00
2022-12-08T16:35:33.366Z,37.80
2022-12-08T16:38:01.045Z,38.60
2022-12-08T16:40:29.017Z,38.60
2022-12-08T16:42:56.929Z,36.90
2022-12-08T16:45:24.566Z,29.50
2022-12-08T16:47:52.417Z,36.10
2022-12-08T16:50:19.814Z,35.60
2022-12-08T16:52:47.864Z,41.40
2022-12-08T16:55:15.318Z,34.70
2022-12-08T16:57:42.710Z,31.70
2022-12-08T17:00:10.498Z,28.60
2022-12-08T17:02:37.952Z,29.00
2022-12-08T17:05:06.069Z,30.70
2022-12-08T17:07:33.497Z,22.00
2022-12-08T17:10:01.014Z,28.50
2022-12-08T17:12:28.657Z,31.50
2022-12-08T17:14:56.579Z,31.70
2022-12-08T17:17:24.022Z,31.00
2022-12-08T17:19:51.456Z,27.50
2022-12-08T17:22:18.906Z,23.60
2022-12-08T17:24:46.732Z,33.40
2022-12-08T17:27:14.268Z,35.60
2022-12-08T17:29:41.658Z,41.00
2022-12-08T17:32:09.825Z,41.20
2022-12-08T17:34:37.409Z,35.30
2022-12-08T17:37:06.597Z,38.00
2022-12-08T17:39:34.050Z,42.90
2022-12-08T17:42:01.700Z,40.10
2022-12-08T17:44:29.160Z,35.80
2022-12-08T17:46:56.553Z,39.60
2022-12-08T17:49:24.278Z,40.40
2022-12-08T17:51:52.036Z,32.70
2022-12-08T17:54:19.485Z,38.10
2022-12-08T17:56:47.220Z,32.20
2022-12-08T17:59:14.670Z,33.70
2022-12-08T18:01:42.323Z,31.30
2022-12-08T18:04:10.124Z,39.30
2022-12-08T18:06:37.842Z,42.30
2022-12-08T18:09:05.429Z,45.30
2022-12-08T18:11:33.172Z,47.00
2022-12-08T18:14:00.784Z,42.30
2022-12-08T18:16:28.503Z,38.90
2022-12-08T18:18:56.063Z,38.30
2022-12-08T18:21:23.969Z,34.20
2022-12-08T18:23:51.877Z,38.60
2022-12-08T18:26:19.420Z,36.80
2022-12-08T18:28:47.203Z,35.40
2022-12-08T18:31:14.733Z,33.20
2022-12-08T18:33:42.697Z,31.50
2022-12-08T18:36:10.349Z,35.60
2022-12-08T18:38:37.781Z,34.30
2022-12-08T18:41:05.207Z,34.30
2022-12-08T18:43:33.041Z,40.70
2022-12-08T18:46:00.711Z,42.20
2022-12-08T18:48:28.164Z,37.40
2022-12-08T18:50:55.870Z,35.10
2022-12-08T18:53:23.655Z,35.90
2022-12-08T18:55:51.064Z,29.80
2022-12-08T18:58:18.631Z,27.70
2022-12-08T19:00:46.036Z,29.30
2022-12-08T19:03:13.570Z,37.90
2022-12-08T19:05:40.994Z,34.20
2022-12-08T19:08:09.039Z,34.10
2022-12-08T19:10:36.632Z,40.60
2022-12-08T19:13:04.328Z,33.20
2022-12-08T19:15:31.773Z,32.80
2022-12-08T19:17:59.290Z,40.00
2022-12-08T19:20:26.762Z,43.10
2022-12-08T19:22:54.602Z,38.40
2022-12-08T19:25:21.976Z,39.70
2022-12-08T19:27:49.934Z,41.20
2022-12-08T19:30:17.610Z,41.60
2022-12-08T19:32:45.464Z,33.40
2022-12-08T19:35:13.166Z,37.60
2022-12-08T19:37:40.774Z,38.20
2022-12-08T19:40:08.518Z,40.10
2022-12-08T19:42:36.463Z,42.40
2022-12-08T19:45:04.429Z,40.60
2022-12-08T19:47:32.006Z,31.20
2022-12-08T19:49:59.558Z,38.40
2022-12-08T19:52:27.404Z,40.40
2022-12-08T19:54:54.804Z,46.90
2022-12-08T19:57:22.190Z,48.30
2022-12-08T19:59:56.018Z,42.80
2022-12-08T20:02:23.837Z,40.90
2022-12-08T20:04:51.556Z,45.90
2022-12-08T20:07:19.131Z,45.90
2022-12-08T20:09:46.732Z,44.90
2022-12-08T20:12:14.319Z,41.40
2022-12-08T20:14:45.848Z,43.40
2022-12-08T20:17:13.713Z,50.40
2022-12-08T20:19:41.245Z,48.20
2022-12-08T20:22:09.024Z,50.00
2022-12-08T20:24:36.593Z,49.70
2022-12-08T20:27:04.603Z,53.50
2022-12-08T20:29:32.275Z,47.40
2022-12-08T20:32:00.147Z,50.50
2022-12-08T20:34:27.793Z,47.50
2022-12-08T20:36:55.303Z,52.50
2022-12-08T20:39:23.358Z,49.90
2022-12-08T20:41:50.881Z,45.30
2022-12-08T20:44:18.253Z,40.50
2022-12-08T20:46:49.459Z,44.40
2022-12-08T20:49:17.666Z,44.50
2022-12-08T20:51:45.284Z,53.70
2022-12-08T20:54:13.311Z,49.50
2022-12-08T20:56:45.019Z,49.40
2022-12-08T20:59:16.205Z,53.00
2022-12-08T21:01:44.058Z,49.70
2022-12-08T21:04:12.200Z,52.90
2022-12-08T21:06:40.381Z,43.00
2022-12-08T21:09:08.171Z,44.70
2022-12-08T21:11:35.875Z,47.90
2022-12-08T21:14:03.309Z,55.40
2022-12-08T21:16:31.063Z,55.60
2022-12-08T21:18:58.882Z,49.70
2022-12-08T21:21:26.868Z,50.90
2022-12-08T21:23:54.256Z,54.20
2022-12-08T21:26:21.701Z,51.20
2022-12-08T21:28:49.552Z,55.20
2022-12-08T21:31:17.485Z,55.80
2022-12-08T21:33:45.121Z,60.70
2022-12-08T21:36:12.761Z,56.30
2022-12-08T21:38:40.563Z,59.80
2022-12-08T21:41:08.331Z,57.20
2022-12-08T21:43:35.853Z,61.00
2022-12-08T21:46:03.672Z,51.80
2022-12-08T21:48:31.833Z,52.00
2022-12-08T21:50:59.660Z,49.30
2022-12-08T21:53:27.523Z,47.10
2022-12-08T21:55:55.142Z,47.70
2022-12-08T21:58:23.863Z,50.60
2022-12-08T22:00:51.602Z,48.10
2022-12-08T22:03:19.669Z,52.70
2022-12-08T22:05:47.791Z,46.70
2022-12-08T22:08:15.487Z,52.20
2022-12-08T22:10:43.237Z,49.10
2022-12-08T22:13:10.905Z,46.10
2022-12-08T22:15:38.619Z,56.80
2022-12-08T22:18:06.061Z,51.90
2022-12-08T22:20:36.188Z,50.70
2022-12-08T22:23:07.241Z,52.90
2022-12-08T22:25:34.967Z,51.20
2022-12-08T22:28:02.403Z,52.40
2022-12-08T22:30:34.046Z,50.90
2022-12-08T22:33:04.990Z,66.10
2022-12-08T22:35:32.643Z,74.60
2022-12-08T22:38:00.151Z,95.40
2022-12-08T22:40:27.759Z,104.20
2022-12-08T22:42:55.282Z,95.00
2022-12-08T22:45:23.207Z,107.70
2022-12-08T22:47:51.138Z,108.00
2022-12-08T22:50:19.125Z,127.40
2022-12-08T22:52:46.904Z,116.70
2022-12-08T22:55:14.923Z,116.40
2022-12-08T22:57:42.769Z,107.60
2022-12-08T23:00:10.984Z,91.60
2022-12-08T23:02:38.851Z,80.90
2022-12-08T23:05:07.298Z,91.30
2022-12-08T23:07:35.173Z,76.80
2022-12-08T23:10:03.039Z,88.60
2022-12-08T23:12:31.125Z,73.40
2022-12-08T23:14:58.875Z,79.70
2022-12-08T23:17:26.612Z,84.20
2022-12-08T23:19:54.281Z,89.20
2022-12-08T23:22:22.067Z,87.20
2022-12-08T23:24:49.677Z,96.30
2022-12-08T23:27:17.502Z,116.20
2022-12-08T23:29:45.045Z,112.50
2022-12-08T23:32:13.475Z,92.30
2022-12-08T23:34:41.329Z,91.20
2022-12-08T23:37:09.024Z,87.70
2022-12-08T23:39:37.377Z,83.70
2022-12-08T23:42:04.888Z,74.30
2022-12-08T23:44:33.273Z,74.30
2022-12-08T23:47:01.301Z,83.80
2022-12-08T23:49:29.336Z,93.60
2022-12-08T23:51:56.897Z,83.40
2022-12-08T23:54:24.808Z,77.30
2022-12-08T23:56:52.275Z,72.50
2022-12-08T23:59:19.934Z,72.10
